Farmington, California
Current Conditions -  °F | °C
As of 9:55 PM on Friday 28 Nov 2014 (Local Time) from KSCK Reporting Station
Haze Haze  
Wind Chill: 48°   Ceiling: Unl
Heat Index: 48°   Visibility: 6mi
Dew Point: 44°   Wind: 3mph
Humidity: 86%   Direction: 80°E
Pressure: 29.88"   Gusts: NA
Location:  37.93°N, 121°W
Report Text: KSCK 290555Z 08003KT 6SM BR CLR 09/07 A2988 RMK AO2 SLP117 T00890067 10178 20089 53010
Loading
Personal Weather Stations






























Interactive Weather Map New forecast layout! Learn more

10-Day Weather Forecast

Advertisements
Track Severe Weather on mobile